createdAt,value
2018-02-06T00:00:18.443Z,5.87
2018-02-06T00:02:47.125Z,6.53
2018-02-06T00:05:15.277Z,5.78
2018-02-06T00:07:43.137Z,6.03
2018-02-06T00:10:11.410Z,6.05
2018-02-06T00:12:39.809Z,5.18
2018-02-06T00:15:07.925Z,5.75
2018-02-06T00:17:35.528Z,6.22
2018-02-06T00:20:03.974Z,6.25
2018-02-06T00:22:43.196Z,6.15
2018-02-06T00:27:44.566Z,5.05
2018-02-06T00:30:12.017Z,5.10
2018-02-06T00:32:39.454Z,5.62
2018-02-06T00:35:06.894Z,5.28
2018-02-06T00:37:34.334Z,4.90
2018-02-06T00:40:02.179Z,6.57
2018-02-06T00:42:29.621Z,5.60
2018-02-06T00:44:57.075Z,5.32
2018-02-06T00:47:24.514Z,5.25
2018-02-06T00:49:51.971Z,5.93
2018-02-06T00:52:19.411Z,4.22
2018-02-06T00:54:46.854Z,5.80
2018-02-06T00:57:14.303Z,6.20
2018-02-06T00:59:41.754Z,6.53
2018-02-06T01:02:09.194Z,5.25
2018-02-06T01:04:36.646Z,4.37
2018-02-06T01:07:04.086Z,5.05
2018-02-06T01:09:31.535Z,4.40
2018-02-06T01:11:58.975Z,4.50
2018-02-06T01:14:26.421Z,5.85
2018-02-06T01:16:53.867Z,7.22
2018-02-06T01:19:21.318Z,6.12
2018-02-06T01:21:49.158Z,6.78
2018-02-06T01:24:16.605Z,5.28
2018-02-06T01:26:44.051Z,5.03
2018-02-06T01:29:11.499Z,4.57
2018-02-06T01:31:38.938Z,5.37
2018-02-06T01:34:07.154Z,5.60
2018-02-06T01:36:34.590Z,4.70
2018-02-06T01:39:02.038Z,5.97
2018-02-06T01:41:29.486Z,4.95
2018-02-06T01:43:56.938Z,6.68
2018-02-06T01:46:24.381Z,6.12
2018-02-06T01:48:51.819Z,5.25
2018-02-06T01:51:20.643Z,5.80
2018-02-06T01:53:48.074Z,3.95
2018-02-06T01:56:15.522Z,7.18
2018-02-06T01:58:42.970Z,4.55
2018-02-06T02:01:10.819Z,4.55
2018-02-06T02:03:38.257Z,6.62
2018-02-06T02:06:05.702Z,4.60
2018-02-06T02:08:33.142Z,5.37
2018-02-06T02:11:00.590Z,6.72
2018-02-06T02:13:28.038Z,4.60
2018-02-06T02:15:55.479Z,4.45
2018-02-06T02:18:23.323Z,6.20
2018-02-06T02:20:50.770Z,2.95
2018-02-06T02:23:18.210Z,5.70
2018-02-06T02:25:45.662Z,6.62
2018-02-06T02:28:13.135Z,6.22
2018-02-06T02:30:40.583Z,5.10
2018-02-06T02:33:08.026Z,5.25
2018-02-06T02:35:35.472Z,6.22
2018-02-06T02:38:02.914Z,6.32
2018-02-06T02:40:30.349Z,4.80
2018-02-06T04:38:29.705Z,4.78
2018-02-06T04:40:57.542Z,6.90
2018-02-06T04:43:24.957Z,8.60
2018-02-06T04:45:52.372Z,6.30
2018-02-06T04:48:20.180Z,5.75
2018-02-06T04:50:47.610Z,5.32
2018-02-06T04:53:15.027Z,5.43
2018-02-06T04:55:42.446Z,4.80
2018-02-06T04:58:09.852Z,6.20
2018-02-06T05:00:37.673Z,6.70
2018-02-06T05:03:05.088Z,8.35
2018-02-06T05:05:32.501Z,7.20
2018-02-06T05:07:59.909Z,3.85
2018-02-06T05:10:27.325Z,6.85
2018-02-06T05:12:54.738Z,5.20
2018-02-06T05:15:22.377Z,5.72
2018-02-06T05:17:49.786Z,5.12
2018-02-06T05:20:17.213Z,4.12
2018-02-06T05:22:44.619Z,4.20
2018-02-06T05:25:12.049Z,5.90
2018-02-06T05:27:39.463Z,6.22
2018-02-06T05:30:06.920Z,6.72
2018-02-06T05:32:34.712Z,4.50
2018-02-06T05:35:02.126Z,3.85
2018-02-06T05:37:29.975Z,4.97
2018-02-06T05:39:57.380Z,5.95
2018-02-06T05:42:24.809Z,6.10
2018-02-06T05:44:52.217Z,3.58
2018-02-06T05:47:19.643Z,4.72
2018-02-06T05:49:47.084Z,7.47
2018-02-06T05:52:14.505Z,6.80
2018-02-06T05:54:42.215Z,6.03
2018-02-06T05:57:09.662Z,7.10
2018-02-06T05:59:37.160Z,5.87
2018-02-06T06:02:04.871Z,7.05
2018-02-06T06:04:32.297Z,6.30
2018-02-06T06:06:59.723Z,5.05
2018-02-06T06:09:27.212Z,5.68
2018-02-06T06:11:54.658Z,7.90
2018-02-06T06:14:22.247Z,7.10
2018-02-06T06:16:50.262Z,7.22
2018-02-06T06:19:18.142Z,7.68
2018-02-06T06:21:45.917Z,8.00
2018-02-06T06:24:13.420Z,6.37
2018-02-06T06:26:40.971Z,7.60
2018-02-06T06:29:08.818Z,8.05
2018-02-06T06:31:36.243Z,5.53
2018-02-06T06:37:54.770Z,6.50
2018-02-06T06:40:22.187Z,7.25
2018-02-06T06:42:49.607Z,8.75
2018-02-06T06:45:17.039Z,6.43
2018-02-06T06:47:44.873Z,6.47
2018-02-06T06:50:12.271Z,6.60
2018-02-06T06:52:39.695Z,6.72
2018-02-06T06:55:07.560Z,6.07
2018-02-06T06:57:34.929Z,8.10
2018-02-06T07:00:02.340Z,5.65
2018-02-06T07:02:29.772Z,8.45
2018-02-06T07:04:57.183Z,7.22
2018-02-06T07:07:24.608Z,6.00
2018-02-06T07:09:52.014Z,9.00
2018-02-06T07:12:19.438Z,6.78
2018-02-06T07:14:46.853Z,6.70
2018-02-06T07:17:14.273Z,6.03
2018-02-06T07:19:42.079Z,5.62
2018-02-06T07:22:09.498Z,8.30
2018-02-06T07:24:37.297Z,7.40
2018-02-06T07:27:04.728Z,6.47
2018-02-06T07:29:32.153Z,7.07
2018-02-06T07:31:59.561Z,6.90
2018-02-06T07:34:26.993Z,7.82
2018-02-06T07:36:54.786Z,8.35
2018-02-06T07:39:22.205Z,6.82
2018-02-06T07:41:49.654Z,7.37
2018-02-06T07:44:17.747Z,5.70
2018-02-06T07:49:19.117Z,8.55
2018-02-06T07:51:46.533Z,5.43
2018-02-06T07:54:13.951Z,7.15
2018-02-06T07:56:41.382Z,7.65
2018-02-06T07:59:08.789Z,7.55
2018-02-06T08:01:36.217Z,5.90
2018-02-06T08:04:03.682Z,6.18
2018-02-06T08:06:31.109Z,6.50
2018-02-06T08:08:58.561Z,6.12
2018-02-06T08:11:26.008Z,6.05
2018-02-06T08:13:53.422Z,9.00
2018-02-06T08:16:20.847Z,7.28
2018-02-06T08:18:48.295Z,7.93
2018-02-06T08:21:15.739Z,7.90
2018-02-06T08:23:43.175Z,6.95
2018-02-06T08:26:11.057Z,5.10
2018-02-06T08:28:38.894Z,7.55
2018-02-06T08:31:06.380Z,5.82
2018-02-06T08:33:34.313Z,7.78
2018-02-06T08:36:01.935Z,7.78
2018-02-06T08:38:29.454Z,6.93
2018-02-06T08:40:57.459Z,6.07
2018-02-06T08:43:24.946Z,8.52
2018-02-06T08:45:53.145Z,7.43
2018-02-06T08:48:21.051Z,5.45
2018-02-06T08:50:48.885Z,6.87
2018-02-06T08:53:16.713Z,6.47
2018-02-06T08:55:44.167Z,7.03
2018-02-06T08:58:12.181Z,6.53
2018-02-06T09:00:40.725Z,7.68
2018-02-06T09:03:09.431Z,7.03
2018-02-06T09:05:36.980Z,9.38
2018-02-06T09:08:04.404Z,7.07
2018-02-06T09:10:31.874Z,8.10
2018-02-06T09:12:59.288Z,9.68
2018-02-06T09:15:26.698Z,10.80
2018-02-06T09:17:54.135Z,6.35
2018-02-06T09:20:21.549Z,6.35
2018-02-06T09:22:49.014Z,8.23
2018-02-06T09:25:16.375Z,7.97
2018-02-06T09:27:43.789Z,8.00
2018-02-06T09:30:11.200Z,6.90
2018-02-06T09:32:38.613Z,9.30
2018-02-06T09:35:06.030Z,8.10
2018-02-06T09:37:33.574Z,8.48
2018-02-06T09:40:01.014Z,7.12
2018-02-06T09:42:28.488Z,10.13
2018-02-06T09:44:55.947Z,7.93
2018-02-06T09:47:23.582Z,9.70
2018-02-06T09:49:51.018Z,7.82
2018-02-06T09:52:18.460Z,8.77
2018-02-06T09:54:45.902Z,8.85
2018-02-06T09:57:13.542Z,10.05
2018-02-06T09:59:41.040Z,10.32
2018-02-06T10:02:08.521Z,8.63
2018-02-06T10:04:35.949Z,8.18
2018-02-06T10:07:03.413Z,7.40
2018-02-06T10:09:30.846Z,8.75
2018-02-06T10:11:58.278Z,8.70
2018-02-06T10:14:25.740Z,6.93
2018-02-06T10:16:53.172Z,9.90
2018-02-06T10:19:20.803Z,8.35
2018-02-06T10:21:48.258Z,7.75
2018-02-06T10:24:15.731Z,8.00
2018-02-06T10:26:43.787Z,8.90
2018-02-06T10:29:11.262Z,8.77
2018-02-06T10:31:39.078Z,9.50
2018-02-06T10:34:06.534Z,8.02
2018-02-06T10:36:33.934Z,7.37
2018-02-06T10:39:01.413Z,9.45
2018-02-06T10:41:30.795Z,7.22
2018-02-06T10:43:58.199Z,7.32
2018-02-06T10:46:25.619Z,7.45
2018-02-06T10:48:53.058Z,9.38
2018-02-06T10:51:20.497Z,9.43
2018-02-06T10:53:47.941Z,9.85
2018-02-06T10:56:15.363Z,7.72
2018-02-06T10:58:42.773Z,7.80
2018-02-06T11:01:10.590Z,7.57
2018-02-06T11:03:38.111Z,8.60
2018-02-06T11:06:05.973Z,8.48
2018-02-06T11:08:33.794Z,7.90
2018-02-06T11:11:01.258Z,8.38
2018-02-06T11:13:28.800Z,9.63
2018-02-06T11:15:56.288Z,9.10
2018-02-06T11:18:23.853Z,10.68
2018-02-06T11:20:51.721Z,8.23
2018-02-06T11:24:25.087Z,7.50
2018-02-06T11:26:52.504Z,9.18
2018-02-06T11:29:19.928Z,7.20
2018-02-06T11:31:47.475Z,7.72
2018-02-06T11:34:14.930Z,7.70
2018-02-06T11:36:42.361Z,9.90
2018-02-06T11:39:09.792Z,7.87
2018-02-06T11:41:37.297Z,8.60
2018-02-06T11:44:04.821Z,7.55
2018-02-06T11:46:32.317Z,9.60
2018-02-06T11:48:59.792Z,8.98
2018-02-06T11:51:27.238Z,9.95
2018-02-06T11:53:54.666Z,6.87
2018-02-06T12:09:30.950Z,12.02
2018-02-06T12:11:58.773Z,11.50
2018-02-06T12:14:26.188Z,7.80
2018-02-06T12:16:54.002Z,8.38
2018-02-06T12:19:21.411Z,8.85
2018-02-06T12:21:48.825Z,10.27
2018-02-06T12:24:16.246Z,8.70
2018-02-06T12:26:43.649Z,9.77
2018-02-06T12:29:11.062Z,9.65
2018-02-06T12:31:38.472Z,8.50
2018-02-06T12:34:06.282Z,9.20
2018-02-06T12:36:33.686Z,8.43
2018-02-06T12:39:01.109Z,10.32
2018-02-06T12:41:28.524Z,8.48
2018-02-06T12:43:55.932Z,9.60
2018-02-06T12:46:23.346Z,7.37
2018-02-06T12:48:50.753Z,7.47
2018-02-06T12:51:18.170Z,8.98
2018-02-06T12:53:45.582Z,8.65
2018-02-06T12:56:13.401Z,9.50
2018-02-06T12:58:40.818Z,8.23
2018-02-06T13:01:08.620Z,6.12
2018-02-06T13:03:36.032Z,6.20
2018-02-06T13:06:03.849Z,9.27
2018-02-06T13:08:31.267Z,9.10
2018-02-06T13:10:58.677Z,7.90
2018-02-06T13:13:26.096Z,8.43
2018-02-06T13:15:53.510Z,7.40
2018-02-06T13:18:21.322Z,7.65
2018-02-06T13:20:48.734Z,8.18
2018-02-06T13:23:16.555Z,10.82
2018-02-06T13:25:43.993Z,10.27
2018-02-06T13:28:11.409Z,8.80
2018-02-06T13:30:39.230Z,11.20
2018-02-06T13:33:06.641Z,8.80
2018-02-06T13:35:34.061Z,10.02
2018-02-06T13:38:01.481Z,8.05
2018-02-06T13:40:28.895Z,8.88
2018-02-06T13:42:56.713Z,9.25
2018-02-06T13:45:24.122Z,12.35
2018-02-06T13:47:51.538Z,10.30
2018-02-06T13:50:18.945Z,7.37
2018-02-06T13:52:46.357Z,8.45
2018-02-06T13:55:13.768Z,8.32
2018-02-06T13:57:49.494Z,8.45
2018-02-06T14:00:17.292Z,8.93
2018-02-06T14:02:44.702Z,9.23
2018-02-06T14:05:12.514Z,9.18
2018-02-06T14:07:39.926Z,7.60
2018-02-06T14:10:07.730Z,8.95
2018-02-06T14:12:35.148Z,13.02
2018-02-06T14:15:02.559Z,13.52
2018-02-06T14:17:29.982Z,7.37
2018-02-06T14:19:57.386Z,8.82
2018-02-06T14:22:24.804Z,9.40
2018-02-06T14:24:52.216Z,7.75
2018-02-06T14:27:19.632Z,8.38
2018-02-06T14:29:47.049Z,9.32
2018-02-06T14:32:14.462Z,9.27
2018-02-06T14:34:43.111Z,8.57
2018-02-06T14:37:10.496Z,12.18
2018-02-06T14:39:37.917Z,12.05
2018-02-06T14:42:05.355Z,8.20
2018-02-06T14:44:33.173Z,11.07
2018-02-06T14:47:00.583Z,7.65
2018-02-06T14:49:28.320Z,7.78
2018-02-06T14:51:55.729Z,11.50
2018-02-06T14:54:23.156Z,10.10
2018-02-06T14:56:50.561Z,9.15
2018-02-06T14:59:17.975Z,6.93
2018-02-06T15:01:45.383Z,8.35
2018-02-06T15:04:12.802Z,8.52
2018-02-06T15:06:40.206Z,9.07
2018-02-06T15:09:07.706Z,9.10
2018-02-06T15:11:35.117Z,8.35
2018-02-06T15:14:02.533Z,7.62
2018-02-06T15:16:29.941Z,8.93
2018-02-06T15:18:57.763Z,9.00
2018-02-06T15:21:25.186Z,9.90
2018-02-06T15:23:52.598Z,7.43
2018-02-06T15:26:20.006Z,8.32
2018-02-06T15:28:47.421Z,8.20
2018-02-06T15:31:14.832Z,9.48
2018-02-06T15:33:42.242Z,8.63
2018-02-06T15:36:09.651Z,9.50
2018-02-06T15:38:37.076Z,10.32
2018-02-06T15:41:04.484Z,8.38
2018-02-06T15:43:31.913Z,8.90
2018-02-06T15:45:59.329Z,6.78
2018-02-06T15:48:26.750Z,9.95
2018-02-06T15:50:54.171Z,10.20
2018-02-06T15:53:21.582Z,9.00
2018-02-06T15:55:49.381Z,8.77
2018-02-06T15:58:17.481Z,8.02
2018-02-06T16:00:44.894Z,7.90
2018-02-06T16:03:12.310Z,8.18
2018-02-06T16:05:39.723Z,7.97
2018-02-06T16:08:07.170Z,8.60
2018-02-06T16:10:34.588Z,8.23
2018-02-06T16:13:02.001Z,9.27
2018-02-06T16:15:29.419Z,8.98
2018-02-06T16:17:56.834Z,10.48
2018-02-06T16:20:24.245Z,11.32
2018-02-06T16:22:51.666Z,27.92
2018-02-06T16:25:19.081Z,16.02
2018-02-06T16:27:46.488Z,9.45
2018-02-06T16:30:14.030Z,11.00
2018-02-06T16:32:41.443Z,9.65
2018-02-06T16:35:08.861Z,9.13
2018-02-06T16:37:36.340Z,10.02
2018-02-06T16:40:03.752Z,10.23
2018-02-06T16:42:31.177Z,10.27
2018-02-06T16:44:58.598Z,9.68
2018-02-06T16:47:26.397Z,8.35
2018-02-06T16:49:53.821Z,9.57
2018-02-06T16:52:21.225Z,11.40
2018-02-06T16:54:48.643Z,10.50
2018-02-06T16:57:16.046Z,7.18
2018-02-06T16:59:43.469Z,9.60
2018-02-06T17:02:22.614Z,9.10
2018-02-06T17:04:50.037Z,9.07
2018-02-06T17:07:17.450Z,10.45
2018-02-06T17:09:44.870Z,11.88
2018-02-06T17:12:12.294Z,13.60
2018-02-06T17:14:40.186Z,11.70
2018-02-06T17:17:07.542Z,12.52
2018-02-06T17:19:34.965Z,13.25
2018-02-06T17:22:02.385Z,10.80
2018-02-06T17:24:29.802Z,10.80
2018-02-06T17:26:57.213Z,9.98
2018-02-06T17:29:24.637Z,11.77
2018-02-06T17:31:52.050Z,11.15
2018-02-06T17:34:19.860Z,9.63
2018-02-06T17:36:47.285Z,10.20
2018-02-06T17:39:14.701Z,8.82
2018-02-06T17:41:42.867Z,10.02
2018-02-06T17:44:10.302Z,11.10
2018-02-06T17:46:37.724Z,11.55
2018-02-06T17:49:05.140Z,10.38
2018-02-06T17:51:32.550Z,10.30
2018-02-06T17:53:59.965Z,10.95
2018-02-06T17:56:27.381Z,10.73
2018-02-06T17:58:54.801Z,10.68
2018-02-06T18:01:22.214Z,10.32
2018-02-06T18:03:49.633Z,9.10
2018-02-06T18:06:17.038Z,8.50
2018-02-06T18:08:44.461Z,9.90
2018-02-06T18:11:11.882Z,11.55
2018-02-06T18:13:39.297Z,11.27
2018-02-06T18:16:06.710Z,10.02
2018-02-06T18:18:34.186Z,9.65
2018-02-06T18:21:01.592Z,10.43
2018-02-06T18:23:29.049Z,8.25
2018-02-06T18:25:56.437Z,10.15
2018-02-06T18:28:23.855Z,9.38
2018-02-06T18:30:51.656Z,7.87
2018-02-06T18:33:19.078Z,8.63
2018-02-06T18:35:46.567Z,9.15
2018-02-06T18:38:13.949Z,8.32
2018-02-06T18:40:41.374Z,9.48
2018-02-06T18:43:08.785Z,9.13
2018-02-06T18:45:36.199Z,8.82
2018-02-06T18:48:03.609Z,9.85
2018-02-06T18:50:31.421Z,9.90
2018-02-06T18:52:58.844Z,10.23
2018-02-06T18:55:26.661Z,9.38
2018-02-06T18:57:54.127Z,11.12
2018-02-06T19:00:21.545Z,11.68
2018-02-06T19:02:48.969Z,11.48
2018-02-06T19:05:16.818Z,10.85
2018-02-06T19:07:44.238Z,12.20
2018-02-06T19:10:11.653Z,10.95
2018-02-06T19:12:39.073Z,7.97
2018-02-06T19:15:06.482Z,8.90
2018-02-06T19:17:33.897Z,12.05
2018-02-06T19:20:01.317Z,12.45
2018-02-06T19:22:28.741Z,10.40
2018-02-06T19:24:56.167Z,13.57
2018-02-06T19:27:23.977Z,12.55
2018-02-06T19:29:51.398Z,11.05
2018-02-06T19:32:18.812Z,16.02
2018-02-06T19:34:46.229Z,11.45
2018-02-06T19:37:13.862Z,18.17
2018-02-06T19:39:41.669Z,12.88
2018-02-06T19:42:09.085Z,10.00
2018-02-06T19:44:36.548Z,10.85
2018-02-06T19:47:03.953Z,10.18
2018-02-06T19:49:31.397Z,10.48
2018-02-06T19:51:58.797Z,11.90
2018-02-06T19:54:26.612Z,11.68
2018-02-06T19:56:54.026Z,10.75
2018-02-06T19:59:21.445Z,8.93
2018-02-06T20:01:48.861Z,10.48
2018-02-06T20:04:16.302Z,10.07
2018-02-06T20:06:44.110Z,9.57
2018-02-06T20:09:11.563Z,8.88
2018-02-06T20:11:38.969Z,11.95
2018-02-06T20:14:06.391Z,9.90
2018-02-06T20:16:33.803Z,10.13
2018-02-06T20:19:01.248Z,11.70
2018-02-06T20:21:28.654Z,11.48
2018-02-06T20:23:56.077Z,10.05
2018-02-06T20:26:23.532Z,10.95
2018-02-06T20:28:50.931Z,11.93
2018-02-06T20:31:18.342Z,10.98
2018-02-06T20:33:45.758Z,11.95
2018-02-06T20:36:13.181Z,12.18
2018-02-06T20:38:40.595Z,10.73
2018-02-06T20:41:08.013Z,12.10
2018-02-06T20:43:35.425Z,14.55
2018-02-06T20:46:02.843Z,12.10
2018-02-06T20:48:30.278Z,10.65
2018-02-06T20:50:57.681Z,9.48
2018-02-06T20:53:25.088Z,11.73
2018-02-06T20:55:52.565Z,10.95
2018-02-06T20:58:19.976Z,9.80
2018-02-06T21:00:47.469Z,8.80
2018-02-06T21:03:14.869Z,10.88
2018-02-06T21:05:42.297Z,11.05
2018-02-06T21:08:10.106Z,11.45
2018-02-06T21:10:37.530Z,11.18
2018-02-06T21:13:04.946Z,9.73
2018-02-06T21:15:32.410Z,10.13
2018-02-06T21:17:59.812Z,10.07
2018-02-06T21:20:27.273Z,11.75
2018-02-06T21:22:54.686Z,10.48
2018-02-06T21:25:22.146Z,10.43
2018-02-06T21:27:49.582Z,10.80
2018-02-06T21:30:16.997Z,12.77
2018-02-06T21:32:44.414Z,11.73
2018-02-06T21:35:11.830Z,9.85
2018-02-06T21:37:39.237Z,9.65
2018-02-06T21:40:07.054Z,9.32
2018-02-06T21:42:34.453Z,10.52
2018-02-06T21:45:01.882Z,11.07
2018-02-06T21:47:29.326Z,12.73
2018-02-06T21:49:56.775Z,10.93
2018-02-06T21:52:24.275Z,12.35
2018-02-06T21:54:51.669Z,13.30
2018-02-06T21:57:19.113Z,9.70
2018-02-06T21:59:46.529Z,9.73
2018-02-06T22:02:13.947Z,10.55
2018-02-06T22:04:41.357Z,9.90
2018-02-06T22:07:08.770Z,11.90
2018-02-06T22:09:36.189Z,18.33
2018-02-06T22:12:03.600Z,13.45
2018-02-06T22:14:31.022Z,27.58
2018-02-06T22:16:58.430Z,15.05
2018-02-06T22:19:25.991Z,13.43
2018-02-06T22:21:53.401Z,12.73
2018-02-06T22:24:20.853Z,17.25
2018-02-06T22:26:48.642Z,12.73
2018-02-06T22:29:16.062Z,13.73
2018-02-06T22:31:43.477Z,11.43
2018-02-06T22:34:10.895Z,10.90
2018-02-06T22:36:38.309Z,11.35
2018-02-06T22:39:05.777Z,9.20
2018-02-06T22:41:33.562Z,12.07
2018-02-06T22:44:00.989Z,10.98
2018-02-06T22:46:28.801Z,12.48
2018-02-06T22:48:56.227Z,12.45
2018-02-06T22:51:23.644Z,10.27
2018-02-06T22:53:51.453Z,11.07
2018-02-06T22:56:18.869Z,12.40
2018-02-06T22:58:46.709Z,12.80
2018-02-06T23:01:14.208Z,11.32
2018-02-06T23:03:41.598Z,9.25
2018-02-06T23:06:09.021Z,8.80
2018-02-06T23:08:36.453Z,10.05
2018-02-06T23:11:04.273Z,7.95
2018-02-06T23:13:31.689Z,11.15
2018-02-06T23:15:59.520Z,10.05
2018-02-06T23:18:26.939Z,10.98
2018-02-06T23:20:54.358Z,11.38
2018-02-06T23:23:21.793Z,7.15
2018-02-06T23:25:49.217Z,10.43
2018-02-06T23:28:16.636Z,10.30
2018-02-06T23:30:44.453Z,9.85
2018-02-06T23:33:11.869Z,11.00
2018-02-06T23:35:39.293Z,8.70
2018-02-06T23:38:06.711Z,9.55
2018-02-06T23:40:34.203Z,10.10
2018-02-06T23:43:01.617Z,10.85
2018-02-06T23:45:29.041Z,12.02
2018-02-06T23:47:57.065Z,11.95
2018-02-06T23:50:24.498Z,11.45
2018-02-06T23:52:51.930Z,8.82
2018-02-06T23:55:19.357Z,9.68
2018-02-06T23:57:46.774Z,9.88
